createdAt,value
2018-02-01T00:02:05.785Z,2.93
2018-02-01T00:04:31.471Z,1.70
2018-02-01T00:06:57.161Z,1.90
2018-02-01T00:09:22.888Z,2.70
2018-02-01T00:11:48.573Z,1.90
2018-02-01T00:14:14.250Z,1.43
2018-02-01T00:16:39.938Z,1.07
2018-02-01T00:19:05.627Z,1.37
2018-02-01T00:21:31.316Z,1.47
2018-02-01T00:23:57.010Z,1.77
2018-02-01T00:26:22.686Z,2.37
2018-02-01T00:28:48.365Z,1.17
2018-02-01T00:31:14.048Z,1.53
2018-02-01T00:33:39.768Z,1.40
2018-02-01T00:36:16.337Z,2.00
2018-02-01T00:38:42.057Z,2.03
2018-02-01T00:41:07.744Z,1.50
2018-02-01T00:43:33.417Z,1.50
2018-02-01T00:45:59.097Z,2.30
2018-02-01T00:48:24.769Z,1.80
2018-02-01T00:50:50.448Z,2.53
2018-02-01T00:53:16.168Z,1.73
2018-02-01T00:55:41.845Z,2.37
2018-02-01T00:58:07.533Z,2.80
2018-02-01T01:00:33.313Z,2.07
2018-02-01T01:02:58.993Z,2.53
2018-02-01T01:05:24.668Z,2.03
2018-02-01T01:07:50.366Z,2.20
2018-02-01T01:10:16.042Z,1.20
2018-02-01T01:12:41.712Z,2.73
2018-02-01T01:15:07.398Z,1.33
2018-02-01T01:17:33.080Z,3.60
2018-02-01T01:19:58.765Z,1.60
2018-02-01T01:22:24.432Z,1.40
2018-02-01T01:24:50.117Z,2.70
2018-02-01T01:27:15.816Z,2.70
2018-02-01T01:29:41.496Z,1.43
2018-02-01T01:32:07.169Z,2.77
2018-02-01T01:34:32.867Z,2.53
2018-02-01T01:36:58.561Z,2.70
2018-02-01T01:39:24.236Z,2.90
2018-02-01T01:41:49.925Z,3.50
2018-02-01T01:44:15.592Z,2.63
2018-02-01T01:46:41.265Z,2.90
2018-02-01T01:49:06.972Z,3.47
2018-02-01T01:51:32.638Z,2.90
2018-02-01T01:53:58.322Z,4.27
2018-02-01T01:56:24.021Z,2.00
2018-02-01T01:58:49.700Z,2.50
2018-02-01T02:01:15.372Z,3.70
2018-02-01T02:03:41.107Z,2.43
2018-02-01T02:06:06.812Z,4.03
2018-02-01T02:08:32.482Z,4.47
2018-02-01T02:10:58.838Z,3.20
2018-02-01T02:13:24.571Z,4.03
2018-02-01T02:15:50.250Z,5.00
2018-02-01T02:18:15.967Z,2.90
2018-02-01T02:20:42.581Z,2.20
2018-02-01T02:23:08.269Z,1.55
2018-02-01T02:25:33.956Z,2.20
2018-02-01T02:27:59.816Z,2.50
2018-02-01T02:30:25.543Z,2.83
2018-02-01T02:32:51.213Z,3.57
2018-02-01T02:35:16.910Z,3.20
2018-02-01T02:37:42.634Z,3.37
2018-02-01T02:40:08.313Z,3.13
2018-02-01T02:42:34.003Z,2.20
2018-02-01T02:44:59.692Z,2.93
2018-02-01T02:47:25.381Z,1.97
2018-02-01T02:49:51.097Z,3.23
2018-02-01T02:52:16.800Z,3.87
2018-02-01T02:54:42.477Z,2.80
2018-02-01T02:57:08.177Z,2.80
2018-02-01T02:59:33.862Z,2.43
2018-02-01T03:01:59.550Z,2.80
2018-02-01T03:04:25.242Z,1.53
2018-02-01T03:06:50.976Z,4.60
2018-02-01T03:09:16.705Z,3.47
2018-02-01T03:11:42.391Z,2.23
2018-02-01T03:14:08.094Z,3.47
2018-02-01T03:16:33.793Z,2.47
2018-02-01T03:18:59.471Z,3.40
2018-02-01T03:21:25.154Z,1.97
2018-02-01T03:23:50.833Z,3.47
2018-02-01T03:26:16.513Z,3.07
2018-02-01T03:28:42.591Z,2.67
2018-02-01T03:31:08.270Z,2.83
2018-02-01T03:33:33.972Z,3.50
2018-02-01T03:35:59.677Z,2.97
2018-02-01T03:38:25.364Z,5.20
2018-02-01T03:40:51.033Z,4.60
2018-02-01T03:43:16.736Z,3.63
2018-02-01T03:45:42.422Z,3.47
2018-02-01T03:48:08.098Z,5.40
2018-02-01T03:50:33.775Z,4.17
2018-02-01T03:52:59.478Z,4.10
2018-02-01T03:55:25.169Z,2.80
2018-02-01T03:57:50.851Z,3.37
2018-02-01T04:00:16.552Z,4.90
2018-02-01T04:02:42.239Z,4.60
2018-02-01T04:05:07.931Z,5.13
2018-02-01T04:07:33.646Z,3.23
2018-02-01T04:09:59.317Z,3.27
2018-02-01T04:12:24.985Z,5.00
2018-02-01T04:14:50.688Z,4.77
2018-02-01T04:17:16.366Z,4.50
2018-02-01T04:19:42.318Z,4.03
2018-02-01T04:22:08.013Z,4.60
2018-02-01T04:24:33.706Z,5.30
2018-02-01T04:26:59.388Z,6.17
2018-02-01T04:29:25.085Z,5.33
2018-02-01T04:31:50.769Z,4.60
2018-02-01T04:34:16.453Z,6.90
2018-02-01T04:36:42.168Z,5.13
2018-02-01T04:39:07.857Z,6.10
2018-02-01T04:41:33.558Z,6.30
2018-02-01T04:43:59.253Z,6.10
2018-02-01T04:46:24.925Z,7.00
2018-02-01T04:48:50.597Z,5.57
2018-02-01T04:51:16.305Z,5.53
2018-02-01T04:53:41.986Z,5.80
2018-02-01T04:56:07.667Z,6.70
2018-02-01T04:58:33.349Z,4.63
2018-02-01T05:00:59.095Z,7.80
2018-02-01T05:03:24.782Z,6.43
2018-02-01T05:05:50.474Z,5.93
2018-02-01T05:08:16.188Z,7.47
2018-02-01T05:10:41.873Z,7.53
2018-02-01T05:13:07.553Z,8.90
2018-02-01T05:15:33.375Z,7.60
2018-02-01T05:17:59.054Z,9.80
2018-02-01T05:20:24.742Z,6.47
2018-02-01T05:22:50.444Z,7.73
2018-02-01T05:25:16.135Z,8.87
2018-02-01T05:27:41.817Z,7.80
2018-02-01T05:30:07.503Z,9.60
2018-02-01T05:32:33.197Z,8.23
2018-02-01T05:34:58.875Z,9.23
2018-02-01T05:37:24.573Z,9.27
2018-02-01T05:39:50.251Z,11.97
2018-02-01T05:42:15.958Z,4.30
2018-02-01T05:44:41.669Z,9.10
2018-02-01T05:47:07.353Z,8.80
2018-02-01T05:49:33.025Z,7.40
2018-02-01T05:51:58.726Z,7.30
2018-02-01T05:54:24.409Z,7.77
2018-02-01T05:56:50.118Z,8.60
2018-02-01T05:59:15.945Z,8.40
2018-02-01T06:01:41.626Z,8.33
2018-02-01T06:04:07.322Z,8.37
2018-02-01T06:06:33.310Z,7.87
2018-02-01T06:08:58.996Z,6.22
2018-02-01T06:11:24.673Z,6.17
2018-02-01T06:13:50.361Z,10.50
2018-02-01T06:16:16.329Z,5.83
2018-02-01T06:18:42.034Z,10.90
2018-02-01T06:21:07.721Z,7.50
2018-02-01T06:23:33.402Z,6.13
2018-02-01T06:25:59.119Z,11.03
2018-02-01T06:28:24.818Z,3.97
2018-02-01T06:30:50.545Z,11.67
2018-02-01T06:33:16.270Z,9.20
2018-02-01T06:35:41.951Z,10.07
2018-02-01T06:38:07.639Z,8.50
2018-02-01T06:40:33.539Z,10.00
2018-02-01T06:42:59.247Z,10.83
2018-02-01T06:45:24.921Z,9.40
2018-02-01T06:47:50.873Z,6.80
2018-02-01T06:50:16.586Z,7.07
2018-02-01T06:52:42.281Z,11.90
2018-02-01T06:55:07.986Z,9.60
2018-02-01T06:57:33.661Z,10.03
2018-02-01T06:59:59.351Z,7.70
2018-02-01T07:02:25.044Z,9.80
2018-02-01T07:04:50.732Z,6.50
2018-02-01T07:07:16.718Z,9.03
2018-02-01T07:09:42.397Z,8.30
2018-02-01T07:12:08.070Z,14.87
2018-02-01T07:14:33.786Z,8.57
2018-02-01T07:16:59.482Z,7.50
2018-02-01T07:19:25.175Z,9.17
2018-02-01T07:21:50.865Z,6.97
2018-02-01T07:24:16.563Z,8.90
2018-02-01T07:26:42.289Z,9.63
2018-02-01T07:29:08.005Z,9.70
2018-02-01T07:31:33.699Z,9.50
2018-02-01T07:33:59.411Z,8.93
2018-02-01T07:36:25.085Z,9.00
2018-02-01T07:38:50.767Z,10.50
2018-02-01T07:41:16.498Z,8.77
2018-02-01T07:43:42.186Z,15.63
2018-02-01T07:46:07.889Z,9.70
2018-02-01T07:48:33.610Z,10.53
2018-02-01T07:50:59.310Z,7.20
2018-02-01T07:53:25.032Z,10.63
2018-02-01T07:55:50.706Z,9.67
2018-02-01T07:58:16.381Z,11.23
2018-02-01T08:00:42.064Z,9.87
2018-02-01T08:03:07.974Z,10.73
2018-02-01T08:05:33.698Z,8.47
2018-02-01T08:07:59.390Z,11.20
2018-02-01T08:10:25.094Z,10.73
2018-02-01T08:12:50.805Z,9.90
2018-02-01T08:15:16.486Z,8.23
2018-02-01T08:17:42.192Z,7.90
2018-02-01T08:20:07.897Z,8.17
2018-02-01T08:22:34.356Z,9.50
2018-02-01T08:25:00.110Z,12.18
2018-02-01T08:27:25.791Z,9.07
2018-02-01T08:29:51.490Z,13.70
2018-02-01T08:32:17.209Z,9.10
2018-02-01T08:34:42.906Z,10.97
2018-02-01T08:37:08.573Z,8.73
2018-02-01T08:39:34.345Z,11.53
2018-02-01T08:42:00.039Z,9.87
2018-02-01T08:44:25.751Z,8.30
2018-02-01T08:46:51.458Z,6.37
2018-02-01T08:49:17.936Z,6.50
2018-02-01T08:51:44.289Z,7.70
2018-02-01T08:54:10.080Z,8.80
2018-02-01T08:56:35.765Z,9.23
2018-02-01T08:59:01.437Z,11.00
2018-02-01T09:01:27.161Z,8.80
2018-02-01T09:03:52.869Z,8.00
2018-02-01T09:06:18.550Z,8.90
2018-02-01T09:08:44.241Z,8.00
2018-02-01T09:11:09.929Z,8.40
2018-02-01T09:13:35.613Z,8.87
2018-02-01T09:16:01.499Z,7.77
2018-02-01T09:18:27.181Z,5.90
2018-02-01T09:20:52.862Z,9.40
2018-02-01T09:23:18.559Z,11.93
2018-02-01T09:25:44.250Z,8.83
2018-02-01T09:28:09.958Z,14.07
2018-02-01T09:30:35.675Z,6.83
2018-02-01T09:33:01.367Z,9.07
2018-02-01T09:35:27.101Z,11.53
2018-02-01T09:37:52.825Z,9.90
2018-02-01T09:40:18.555Z,11.90
2018-02-01T09:42:44.241Z,9.87
2018-02-01T09:45:09.946Z,11.60
2018-02-01T09:47:35.681Z,13.20
2018-02-01T09:50:01.407Z,7.20
2018-02-01T09:52:27.140Z,9.37
2018-02-01T09:54:52.902Z,8.37
2018-02-01T09:57:18.594Z,10.03
2018-02-01T09:59:44.628Z,12.57
2018-02-01T10:02:10.339Z,7.22
2018-02-01T10:04:36.050Z,13.03
2018-02-01T10:07:01.728Z,9.13
2018-02-01T10:09:27.737Z,6.40
2018-02-01T10:11:53.426Z,7.95
2018-02-01T10:14:19.118Z,7.80
2018-02-01T10:16:44.818Z,7.97
2018-02-01T10:19:10.493Z,8.97
2018-02-01T10:21:36.173Z,11.93
2018-02-01T10:24:01.909Z,12.40
2018-02-01T10:26:27.598Z,6.80
2018-02-01T10:28:53.289Z,7.90
2018-02-01T10:31:19.050Z,5.10
2018-02-01T10:33:44.732Z,10.97
2018-02-01T10:36:10.401Z,10.27
2018-02-01T10:38:36.262Z,8.73
2018-02-01T10:41:01.962Z,10.23
2018-02-01T10:43:27.651Z,7.07
2018-02-01T10:45:53.713Z,10.80
2018-02-01T10:48:19.413Z,16.17
2018-02-01T10:50:45.595Z,17.37
2018-02-01T10:53:11.278Z,11.98
2018-02-01T10:55:36.978Z,13.00
2018-02-01T10:58:03.127Z,10.27
2018-02-01T11:00:28.806Z,8.15
2018-02-01T11:02:54.730Z,10.10
2018-02-01T11:05:20.465Z,12.37
2018-02-01T11:07:46.173Z,11.57
2018-02-01T11:10:11.893Z,7.47
2018-02-01T11:12:37.576Z,7.27
2018-02-01T11:15:03.352Z,15.57
2018-02-01T11:17:29.088Z,17.90
2018-02-01T11:19:54.786Z,20.20
2018-02-01T11:22:20.465Z,9.33
2018-02-01T11:24:46.638Z,14.77
2018-02-01T11:27:12.381Z,10.52
2018-02-01T11:29:38.061Z,28.20
2018-02-01T11:32:03.753Z,9.67
2018-02-01T11:34:29.465Z,8.03
2018-02-01T11:36:55.134Z,20.33
2018-02-01T11:39:20.817Z,14.73
2018-02-01T11:41:46.714Z,12.10
2018-02-01T11:44:12.406Z,9.63
2018-02-01T11:46:38.116Z,10.07
2018-02-01T11:49:03.955Z,16.30
2018-02-01T11:51:29.634Z,11.10
2018-02-01T11:53:55.319Z,11.40
2018-02-01T11:56:21.054Z,9.53
2018-02-01T11:58:46.791Z,12.63
2018-02-01T12:01:12.493Z,11.70
2018-02-01T12:03:38.173Z,13.47
2018-02-01T12:06:03.912Z,10.70
2018-02-01T12:11:02.194Z,14.90
2018-02-01T12:13:27.873Z,7.17
2018-02-01T12:15:53.682Z,11.67
2018-02-01T12:18:19.532Z,10.17
2018-02-01T12:20:45.238Z,10.80
2018-02-01T12:23:11.454Z,8.50
2018-02-01T12:25:37.168Z,8.63
2018-02-01T12:28:02.892Z,9.73
2018-02-01T12:30:28.661Z,8.63
2018-02-01T12:32:54.353Z,7.03
2018-02-01T12:35:20.061Z,5.90
2018-02-01T12:37:45.773Z,10.97
2018-02-01T12:40:11.493Z,9.30
2018-02-01T12:42:37.184Z,7.73
2018-02-01T12:45:03.151Z,7.10
2018-02-01T12:47:28.850Z,11.30
2018-02-01T12:49:54.621Z,11.13
2018-02-01T12:52:20.338Z,10.60
2018-02-01T12:54:46.121Z,5.53
2018-02-01T12:57:11.808Z,8.90
2018-02-01T12:59:37.774Z,4.93
2018-02-01T13:02:03.582Z,6.80
2018-02-01T13:04:29.270Z,6.47
2018-02-01T13:06:55.006Z,8.03
2018-02-01T13:09:20.683Z,11.30
2018-02-01T13:11:46.642Z,5.00
2018-02-01T13:14:12.584Z,10.40
2018-02-01T13:16:38.605Z,6.47
2018-02-01T13:19:04.399Z,9.60
2018-02-01T13:21:30.324Z,3.77
2018-02-01T13:23:56.137Z,7.27
2018-02-01T13:26:21.831Z,4.80
2018-02-01T13:28:47.550Z,8.50
2018-02-01T13:31:14.078Z,8.98
2018-02-01T13:33:39.805Z,15.03
2018-02-01T13:36:05.927Z,11.33
2018-02-01T13:38:31.606Z,10.65
2018-02-01T13:40:57.417Z,22.63
2018-02-01T13:43:23.392Z,8.93
2018-02-01T13:45:49.094Z,8.60
2018-02-01T13:48:14.778Z,15.67
2018-02-01T13:50:40.464Z,8.60
2018-02-01T13:53:06.146Z,5.73
2018-02-01T13:55:31.883Z,5.20
2018-02-01T13:57:57.572Z,5.43
2018-02-01T14:00:23.558Z,5.60
2018-02-01T14:02:49.254Z,7.10
2018-02-01T14:05:14.961Z,4.93
2018-02-01T14:07:40.922Z,10.07
2018-02-01T14:10:06.602Z,6.87
2018-02-01T14:12:32.294Z,7.47
2018-02-01T14:14:58.053Z,8.63
2018-02-01T14:17:23.720Z,7.70
2018-02-01T14:19:49.413Z,7.60
2018-02-01T14:22:15.106Z,6.10
2018-02-01T14:24:40.794Z,6.77
2018-02-01T14:27:06.469Z,6.63
2018-02-01T14:29:32.384Z,8.50
2018-02-01T14:31:58.090Z,8.80
2018-02-01T14:34:23.770Z,7.97
2018-02-01T14:36:49.527Z,7.07
2018-02-01T14:39:15.246Z,5.27
2018-02-01T14:41:41.189Z,8.00
2018-02-01T14:44:06.902Z,6.73
2018-02-01T14:46:32.569Z,7.37
2018-02-01T14:48:58.363Z,5.37
2018-02-01T14:51:24.067Z,6.30
2018-02-01T14:53:50.163Z,6.40
2018-02-01T14:56:18.114Z,5.12
2018-02-01T14:58:43.857Z,6.32
2018-02-01T15:01:09.555Z,7.47
2018-02-01T15:03:35.255Z,13.53
2018-02-01T15:06:00.959Z,7.77
2018-02-01T15:08:27.069Z,5.80
2018-02-01T15:10:52.749Z,5.82
2018-02-01T15:13:18.561Z,8.77
2018-02-01T15:15:44.308Z,5.73
2018-02-01T15:18:09.999Z,7.83
2018-02-01T15:20:35.705Z,6.17
2018-02-01T15:23:01.491Z,6.63
2018-02-01T15:25:27.250Z,6.77
2018-02-01T15:27:53.018Z,5.23
2018-02-01T15:30:18.750Z,5.47
2018-02-01T15:32:44.587Z,5.37
2018-02-01T15:35:11.733Z,5.10
2018-02-01T15:37:37.427Z,5.37
2018-02-01T15:40:03.155Z,4.30
2018-02-01T15:42:29.155Z,6.30
2018-02-01T15:44:55.227Z,5.00
2018-02-01T15:47:20.901Z,6.68
2018-02-01T15:49:46.995Z,3.70
2018-02-01T15:52:12.694Z,5.43
2018-02-01T15:54:38.378Z,4.90
2018-02-01T15:57:04.071Z,4.80
2018-02-01T15:59:30.152Z,7.07
2018-02-01T16:01:56.297Z,8.02
2018-02-01T16:04:22.351Z,7.85
2018-02-01T16:06:48.185Z,13.40
2018-02-01T16:09:13.870Z,8.10
2018-02-01T16:11:39.685Z,7.70
2018-02-01T16:14:05.371Z,8.43
2018-02-01T16:16:31.068Z,6.00
2018-02-01T16:18:57.321Z,6.80
2018-02-01T16:21:23.001Z,5.37
2018-02-01T16:23:48.677Z,9.83
2018-02-01T16:26:14.397Z,7.83
2018-02-01T16:28:40.092Z,2.67
2018-02-01T16:31:06.090Z,5.60
2018-02-01T16:33:32.066Z,5.97
2018-02-01T16:35:58.022Z,7.07
2018-02-01T16:38:23.779Z,6.60
2018-02-01T16:40:49.522Z,11.40
2018-02-01T16:43:15.235Z,6.53
2018-02-01T16:45:40.922Z,4.33
2018-02-01T16:48:07.105Z,7.93
2018-02-01T16:50:32.805Z,5.47
2018-02-01T16:52:58.529Z,5.70
2018-02-01T16:55:24.234Z,8.90
2018-02-01T16:57:49.926Z,5.70
2018-02-01T17:00:15.663Z,7.63
2018-02-01T17:02:41.345Z,6.67
2018-02-01T17:05:07.169Z,4.70
2018-02-01T17:07:32.910Z,6.67
2018-02-01T17:09:58.594Z,8.33
2018-02-01T17:12:24.290Z,6.23
2018-02-01T17:14:50.367Z,7.17
2018-02-01T17:17:16.095Z,8.68
2018-02-01T17:19:41.794Z,5.43
2018-02-01T17:22:07.866Z,4.47
2018-02-01T17:24:33.833Z,8.77
2018-02-01T17:26:59.517Z,12.07
2018-02-01T17:29:25.249Z,10.97
2018-02-01T17:31:50.961Z,49.17
2018-02-01T17:34:16.946Z,46.50
2018-02-01T17:36:42.701Z,22.23
2018-02-01T17:39:08.410Z,8.10
2018-02-01T17:41:34.118Z,8.00
2018-02-01T17:43:59.802Z,10.80
2018-02-01T17:46:25.491Z,11.23
2018-02-01T17:48:51.190Z,9.00
2018-02-01T17:51:16.891Z,9.77
2018-02-01T17:53:42.626Z,8.87
2018-02-01T17:56:08.324Z,8.03
2018-02-01T17:58:34.134Z,9.40
2018-02-01T18:00:59.809Z,12.20
2018-02-01T18:03:25.526Z,10.87
2018-02-01T18:05:51.289Z,8.30
2018-02-01T18:08:17.002Z,8.60
2018-02-01T18:10:42.766Z,8.70
2018-02-01T18:13:08.478Z,12.30
2018-02-01T18:15:34.157Z,12.10
2018-02-01T18:17:59.870Z,11.10
2018-02-01T18:20:25.559Z,7.80
2018-02-01T18:22:51.253Z,10.97
2018-02-01T18:25:17.012Z,8.70
2018-02-01T18:27:42.706Z,7.90
2018-02-01T18:30:08.463Z,12.97
2018-02-01T18:32:34.282Z,7.23
2018-02-01T18:34:59.979Z,6.80
2018-02-01T18:37:25.674Z,8.37
2018-02-01T18:39:51.383Z,13.80
2018-02-01T18:42:17.058Z,6.77
2018-02-01T18:44:42.743Z,12.47
2018-02-01T18:47:08.470Z,7.90
2018-02-01T18:49:34.183Z,11.27
2018-02-01T18:51:59.871Z,7.07
2018-02-01T18:54:25.574Z,9.13
2018-02-01T18:56:51.240Z,9.60
2018-02-01T18:59:16.946Z,7.97
2018-02-01T19:01:42.881Z,9.47
2018-02-01T19:04:08.574Z,13.87
2018-02-01T19:06:34.282Z,8.67
2018-02-01T19:08:59.978Z,7.10
2018-02-01T19:11:25.907Z,9.03
2018-02-01T19:13:51.653Z,7.57
2018-02-01T19:16:17.335Z,10.90
2018-02-01T19:18:43.614Z,44.87
2018-02-01T19:21:09.399Z,10.93
2018-02-01T19:23:35.105Z,7.77
2018-02-01T19:26:01.147Z,16.30
2018-02-01T19:28:26.829Z,16.90
2018-02-01T19:30:52.526Z,16.73
2018-02-01T19:33:18.341Z,8.47
2018-02-01T19:35:44.086Z,13.60
2018-02-01T19:38:09.770Z,14.07
2018-02-01T19:40:35.721Z,18.20
2018-02-01T19:43:01.689Z,6.90
2018-02-01T19:45:27.394Z,12.03
2018-02-01T19:47:53.069Z,11.87
2018-02-01T19:50:19.040Z,13.03
2018-02-01T19:52:45.191Z,13.10
2018-02-01T19:55:10.926Z,9.70
2018-02-01T19:57:36.634Z,11.30
2018-02-01T20:00:02.373Z,8.33
2018-02-01T20:02:28.055Z,10.40
2018-02-01T20:04:53.755Z,10.60
2018-02-01T20:07:19.502Z,10.17
2018-02-01T20:09:45.286Z,13.10
2018-02-01T20:12:11.190Z,13.20
2018-02-01T20:14:37.204Z,9.70
2018-02-01T20:17:03.164Z,15.05
2018-02-01T20:19:28.877Z,10.83
2018-02-01T20:21:54.573Z,8.87
2018-02-01T20:24:20.273Z,14.80
2018-02-01T20:26:46.143Z,9.10
2018-02-01T20:29:11.960Z,9.77
2018-02-01T20:31:37.676Z,9.53
2018-02-01T20:34:03.364Z,7.00
2018-02-01T20:36:29.272Z,8.50
2018-02-01T20:38:55.049Z,15.43
2018-02-01T20:41:20.900Z,13.30
2018-02-01T20:43:46.766Z,15.00
2018-02-01T20:46:12.497Z,16.13
2018-02-01T20:48:38.182Z,14.70
2018-02-01T20:51:04.187Z,9.90
2018-02-01T20:53:29.892Z,10.55
2018-02-01T20:55:55.590Z,14.70
2018-02-01T20:58:21.273Z,14.63
2018-02-01T21:00:46.959Z,11.17
2018-02-01T21:03:12.654Z,10.87
2018-02-01T21:05:38.373Z,10.90
2018-02-01T21:08:04.292Z,11.70
2018-02-01T21:10:30.039Z,11.23
2018-02-01T21:12:55.729Z,8.37
2018-02-01T21:15:21.421Z,8.90
2018-02-01T21:17:47.138Z,14.73
2018-02-01T21:20:13.082Z,11.87
2018-02-01T21:22:38.769Z,11.23
2018-02-01T21:25:04.442Z,12.40
2018-02-01T21:27:30.439Z,14.97
2018-02-01T21:29:56.214Z,11.05
2018-02-01T21:32:21.906Z,10.10
2018-02-01T21:34:47.833Z,13.80
2018-02-01T21:37:13.586Z,10.85
2018-02-01T21:39:39.285Z,15.10
2018-02-01T21:42:05.028Z,41.80
2018-02-01T21:44:30.755Z,52.60
2018-02-01T21:46:56.442Z,37.37
2018-02-01T21:49:22.371Z,13.07
2018-02-01T21:51:48.125Z,10.63
2018-02-01T21:54:14.040Z,12.90
2018-02-01T21:56:39.730Z,12.67
2018-02-01T21:59:05.423Z,9.37
2018-02-01T22:01:31.621Z,14.63
2018-02-01T22:03:58.053Z,12.00
2018-02-01T22:06:24.539Z,9.05
2018-02-01T22:08:50.294Z,20.27
2018-02-01T22:11:16.664Z,8.87
2018-02-01T22:13:42.708Z,16.40
2018-02-01T22:16:08.477Z,15.27
2018-02-01T22:18:34.775Z,9.57
2018-02-01T22:21:00.728Z,14.90
2018-02-01T22:23:26.481Z,8.32
2018-02-01T22:25:52.965Z,11.43
2018-02-01T22:28:19.552Z,11.40
2018-02-01T22:30:46.234Z,10.02
2018-02-01T22:33:11.969Z,9.40
2018-02-01T22:35:39.464Z,12.57
2018-02-01T22:38:05.661Z,6.70
2018-02-01T22:40:32.132Z,9.37
2018-02-01T22:42:58.015Z,4.75
2018-02-01T22:45:24.475Z,8.80
2018-02-01T22:47:50.166Z,12.68
2018-02-01T22:50:16.942Z,8.20
2018-02-01T22:52:43.046Z,12.60
2018-02-01T22:55:08.734Z,9.48
2018-02-01T22:57:35.112Z,10.73
2018-02-01T23:00:00.863Z,11.43
2018-02-01T23:02:26.690Z,12.23
2018-02-01T23:04:52.728Z,9.70
2018-02-01T23:07:19.143Z,9.82
2018-02-01T23:09:45.560Z,9.45
2018-02-01T23:12:11.390Z,10.82
2018-02-01T23:14:37.809Z,16.80
2018-02-01T23:17:03.543Z,11.57
2018-02-01T23:19:29.234Z,12.33
2018-02-01T23:21:55.718Z,11.33
2018-02-01T23:24:22.116Z,13.18
2018-02-01T23:26:47.875Z,7.95
2018-02-01T23:29:14.339Z,10.60
2018-02-01T23:31:40.183Z,11.05
2018-02-01T23:34:06.636Z,15.40
2018-02-01T23:36:32.370Z,9.80
2018-02-01T23:38:58.675Z,15.67
2018-02-01T23:41:24.797Z,9.45
2018-02-01T23:43:51.110Z,8.18
2018-02-01T23:46:16.825Z,5.40
2018-02-01T23:48:43.023Z,10.33
2018-02-01T23:51:08.755Z,15.93
2018-02-01T23:53:34.541Z,12.70
2018-02-01T23:56:00.285Z,12.97
2018-02-01T23:58:26.225Z,8.83
